sensor_id;sensor_type;location;lat;lon;timestamp;pressure;altitude;pressure_sealevel;temperature;humidity
83424;BME280;73355;49.044;8.686;2024-01-06T00:01:59;98487.41;;;7.31;68.47
83424;BME280;73355;49.044;8.686;2024-01-06T00:04:25;98478.09;;;7.32;68.50
83424;BME280;73355;49.044;8.686;2024-01-06T00:06:50;98476.53;;;7.34;68.89
83424;BME280;73355;49.044;8.686;2024-01-06T00:09:15;98479.56;;;7.36;68.14
83424;BME280;73355;49.044;8.686;2024-01-06T00:11:41;98486.16;;;7.35;68.38
83424;BME280;73355;49.044;8.686;2024-01-06T00:14:06;98484.97;;;7.36;68.32
83424;BME280;73355;49.044;8.686;2024-01-06T00:16:31;98488.88;;;7.35;68.24
83424;BME280;73355;49.044;8.686;2024-01-06T00:18:57;98477.28;;;7.35;68.08
83424;BME280;73355;49.044;8.686;2024-01-06T00:21:22;98477.28;;;7.35;68.36
83424;BME280;73355;49.044;8.686;2024-01-06T00:23:47;98479.97;;;7.35;68.60
83424;BME280;73355;49.044;8.686;2024-01-06T00:26:12;98477.75;;;7.30;68.49
83424;BME280;73355;49.044;8.686;2024-01-06T00:28:41;98480.44;;;7.30;68.37
83424;BME280;73355;49.044;8.686;2024-01-06T00:31:06;98477.34;;;7.31;68.08
83424;BME280;73355;49.044;8.686;2024-01-06T00:33:31;98479.69;;;7.29;68.23
83424;BME280;73355;49.044;8.686;2024-01-06T00:35:57;98480.03;;;7.31;68.57
83424;BME280;73355;49.044;8.686;2024-01-06T00:38:22;98476.16;;;7.32;68.27
83424;BME280;73355;49.044;8.686;2024-01-06T00:40:47;98475.81;;;7.30;68.57
83424;BME280;73355;49.044;8.686;2024-01-06T00:43:13;98478.97;;;7.25;68.03
83424;BME280;73355;49.044;8.686;2024-01-06T00:45:38;98480.63;;;7.19;68.33
83424;BME280;73355;49.044;8.686;2024-01-06T00:48:04;98475.69;;;7.14;68.10
83424;BME280;73355;49.044;8.686;2024-01-06T00:50:29;98474.97;;;7.10;68.39
83424;BME280;73355;49.044;8.686;2024-01-06T00:52:55;98473.13;;;7.03;68.47
83424;BME280;73355;49.044;8.686;2024-01-06T00:55:21;98478.19;;;7.01;68.89
83424;BME280;73355;49.044;8.686;2024-01-06T00:57:47;98485.09;;;7.06;68.56
83424;BME280;73355;49.044;8.686;2024-01-06T01:00:12;98489.31;;;7.07;68.82
83424;BME280;73355;49.044;8.686;2024-01-06T01:02:38;98488.13;;;7.08;69.17
83424;BME280;73355;49.044;8.686;2024-01-06T01:05:04;98493.50;;;7.12;68.97
83424;BME280;73355;49.044;8.686;2024-01-06T01:07:29;98501.97;;;7.14;69.04
83424;BME280;73355;49.044;8.686;2024-01-06T01:09:56;98502.72;;;7.14;68.97
83424;BME280;73355;49.044;8.686;2024-01-06T01:12:21;98504.34;;;7.12;68.66
83424;BME280;73355;49.044;8.686;2024-01-06T01:14:47;98507.47;;;7.06;68.88
83424;BME280;73355;49.044;8.686;2024-01-06T01:17:12;98497.88;;;7.02;68.95
83424;BME280;73355;49.044;8.686;2024-01-06T01:19:38;98511.41;;;7.02;68.59
83424;BME280;73355;49.044;8.686;2024-01-06T01:22:03;98518.00;;;7.01;68.51
83424;BME280;73355;49.044;8.686;2024-01-06T01:24:28;98515.28;;;7.01;69.12
83424;BME280;73355;49.044;8.686;2024-01-06T01:26:54;98522.66;;;7.00;68.98
83424;BME280;73355;49.044;8.686;2024-01-06T01:29:19;98530.00;;;7.00;68.92
83424;BME280;73355;49.044;8.686;2024-01-06T01:31:46;98523.47;;;6.97;68.97
83424;BME280;73355;49.044;8.686;2024-01-06T01:34:12;98520.81;;;6.94;69.16
83424;BME280;73355;49.044;8.686;2024-01-06T01:36:37;98524.69;;;6.93;68.70
83424;BME280;73355;49.044;8.686;2024-01-06T01:39:02;98527.75;;;6.95;68.98
83424;BME280;73355;49.044;8.686;2024-01-06T01:41:28;98525.81;;;6.95;69.08
83424;BME280;73355;49.044;8.686;2024-01-06T01:43:53;98536.28;;;6.93;69.08
83424;BME280;73355;49.044;8.686;2024-01-06T01:46:25;98547.09;;;6.93;69.43
83424;BME280;73355;49.044;8.686;2024-01-06T01:48:51;98548.63;;;6.94;68.98
83424;BME280;73355;49.044;8.686;2024-01-06T01:51:18;98551.69;;;6.96;68.91
83424;BME280;73355;49.044;8.686;2024-01-06T01:53:44;98552.09;;;6.95;69.02
83424;BME280;73355;49.044;8.686;2024-01-06T01:56:09;98558.69;;;6.94;69.06
83424;BME280;73355;49.044;8.686;2024-01-06T01:58:36;98560.97;;;6.95;69.25
83424;BME280;73355;49.044;8.686;2024-01-06T02:01:02;98557.94;;;6.93;69.39
83424;BME280;73355;49.044;8.686;2024-01-06T02:03:30;98552.97;;;6.88;68.89
83424;BME280;73355;49.044;8.686;2024-01-06T02:05:55;98564.59;;;6.85;69.44
83424;BME280;73355;49.044;8.686;2024-01-06T02:08:21;98559.22;;;6.82;68.90
83424;BME280;73355;49.044;8.686;2024-01-06T02:10:46;98565.09;;;6.77;69.13
83424;BME280;73355;49.044;8.686;2024-01-06T02:13:12;98563.97;;;6.74;69.16
83424;BME280;73355;49.044;8.686;2024-01-06T02:15:37;98564.34;;;6.73;69.35
83424;BME280;73355;49.044;8.686;2024-01-06T02:18:03;98556.66;;;6.71;69.21
83424;BME280;73355;49.044;8.686;2024-01-06T02:20:30;98572.13;;;6.71;69.48
83424;BME280;73355;49.044;8.686;2024-01-06T02:22:55;98574.81;;;6.71;69.62
83424;BME280;73355;49.044;8.686;2024-01-06T02:25:22;98572.53;;;6.69;69.05
83424;BME280;73355;49.044;8.686;2024-01-06T02:27:47;98572.16;;;6.67;68.87
83424;BME280;73355;49.044;8.686;2024-01-06T02:30:12;98578.38;;;6.64;68.79
83424;BME280;73355;49.044;8.686;2024-01-06T02:32:38;98579.16;;;6.64;69.26
83424;BME280;73355;49.044;8.686;2024-01-06T02:35:03;98576.44;;;6.64;68.87
83424;BME280;73355;49.044;8.686;2024-01-06T02:37:29;98583.38;;;6.66;68.78
83424;BME280;73355;49.044;8.686;2024-01-06T02:39:54;98581.47;;;6.66;68.90
83424;BME280;73355;49.044;8.686;2024-01-06T02:42:19;98587.59;;;6.67;69.24
83424;BME280;73355;49.044;8.686;2024-01-06T02:44:45;98593.00;;;6.67;68.96
83424;BME280;73355;49.044;8.686;2024-01-06T02:47:11;98587.97;;;6.69;68.84
83424;BME280;73355;49.044;8.686;2024-01-06T02:49:36;98586.41;;;6.71;68.60
83424;BME280;73355;49.044;8.686;2024-01-06T02:52:01;98599.16;;;6.71;68.76
83424;BME280;73355;49.044;8.686;2024-01-06T02:54:27;98596.84;;;6.69;68.60
83424;BME280;73355;49.044;8.686;2024-01-06T02:56:52;98600.78;;;6.64;68.70
83424;BME280;73355;49.044;8.686;2024-01-06T02:59:17;98594.66;;;6.60;68.85
83424;BME280;73355;49.044;8.686;2024-01-06T03:01:42;98603.56;;;6.57;68.86
83424;BME280;73355;49.044;8.686;2024-01-06T03:04:08;98604.38;;;6.54;68.97
83424;BME280;73355;49.044;8.686;2024-01-06T03:06:34;98605.22;;;6.48;68.67
83424;BME280;73355;49.044;8.686;2024-01-06T03:08:59;98612.94;;;6.46;68.87
83424;BME280;73355;49.044;8.686;2024-01-06T03:11:25;98604.50;;;6.40;68.90
83424;BME280;73355;49.044;8.686;2024-01-06T03:13:50;98609.16;;;6.40;68.86
83424;BME280;73355;49.044;8.686;2024-01-06T03:16:15;98608.03;;;6.37;69.02
83424;BME280;73355;49.044;8.686;2024-01-06T03:18:40;98605.69;;;6.39;68.82
83424;BME280;73355;49.044;8.686;2024-01-06T03:21:19;98609.53;;;6.42;69.09
83424;BME280;73355;49.044;8.686;2024-01-06T03:23:45;98613.78;;;6.39;69.17
83424;BME280;73355;49.044;8.686;2024-01-06T03:26:10;98613.00;;;6.39;68.98
83424;BME280;73355;49.044;8.686;2024-01-06T03:28:36;98612.22;;;6.42;69.54
83424;BME280;73355;49.044;8.686;2024-01-06T03:31:01;98614.53;;;6.43;69.15
83424;BME280;73355;49.044;8.686;2024-01-06T03:33:26;98611.84;;;6.43;69.38
83424;BME280;73355;49.044;8.686;2024-01-06T03:35:52;98619.94;;;6.43;69.29
83424;BME280;73355;49.044;8.686;2024-01-06T03:38:17;98616.03;;;6.44;69.53
83424;BME280;73355;49.044;8.686;2024-01-06T03:40:42;98612.63;;;6.40;69.41
83424;BME280;73355;49.044;8.686;2024-01-06T03:43:07;98613.44;;;6.37;69.43
83424;BME280;73355;49.044;8.686;2024-01-06T03:45:33;98606.13;;;6.34;70.01
83424;BME280;73355;49.044;8.686;2024-01-06T03:47:58;98605.03;;;6.28;69.80
83424;BME280;73355;49.044;8.686;2024-01-06T03:50:23;98617.75;;;6.28;70.37
83424;BME280;73355;49.044;8.686;2024-01-06T03:52:49;98608.88;;;6.27;70.25
83424;BME280;73355;49.044;8.686;2024-01-06T03:55:14;98611.25;;;6.25;70.36
83424;BME280;73355;49.044;8.686;2024-01-06T03:57:41;98610.50;;;6.21;70.57
83424;BME280;73355;49.044;8.686;2024-01-06T04:00:07;98601.66;;;6.17;70.66
83424;BME280;73355;49.044;8.686;2024-01-06T04:02:33;98602.81;;;6.16;71.20
83424;BME280;73355;49.044;8.686;2024-01-06T04:04:58;98610.94;;;6.16;71.21
83424;BME280;73355;49.044;8.686;2024-01-06T04:07:24;98615.94;;;6.17;70.84
83424;BME280;73355;49.044;8.686;2024-01-06T04:09:49;98618.25;;;6.15;71.11
83424;BME280;73355;49.044;8.686;2024-01-06T04:12:15;98613.69;;;6.12;71.53
83424;BME280;73355;49.044;8.686;2024-01-06T04:14:40;98622.59;;;6.09;72.00
83424;BME280;73355;49.044;8.686;2024-01-06T04:17:05;98617.97;;;6.06;71.66
83424;BME280;73355;49.044;8.686;2024-01-06T04:19:31;98628.81;;;6.03;72.26
83424;BME280;73355;49.044;8.686;2024-01-06T04:21:56;98624.56;;;6.02;72.23
83424;BME280;73355;49.044;8.686;2024-01-06T04:24:21;98623.41;;;6.03;72.19
83424;BME280;73355;49.044;8.686;2024-01-06T04:26:49;98614.09;;;6.07;72.58
83424;BME280;73355;49.044;8.686;2024-01-06T04:29:14;98613.72;;;6.05;72.37
83424;BME280;73355;49.044;8.686;2024-01-06T04:31:42;98614.50;;;6.09;72.96
83424;BME280;73355;49.044;8.686;2024-01-06T04:34:08;98615.28;;;6.06;72.28
83424;BME280;73355;49.044;8.686;2024-01-06T04:36:33;98605.19;;;6.10;72.80
83424;BME280;73355;49.044;8.686;2024-01-06T04:38:58;98616.38;;;6.12;72.85
83424;BME280;73355;49.044;8.686;2024-01-06T04:41:24;98614.44;;;6.13;72.99
83424;BME280;73355;49.044;8.686;2024-01-06T04:43:49;98599.78;;;6.14;72.45
83424;BME280;73355;49.044;8.686;2024-01-06T04:46:14;98604.03;;;6.11;72.59
83424;BME280;73355;49.044;8.686;2024-01-06T04:48:43;98612.19;;;6.08;72.56
83424;BME280;73355;49.044;8.686;2024-01-06T04:51:09;98616.41;;;6.09;73.12
83424;BME280;73355;49.044;8.686;2024-01-06T04:53:38;98612.19;;;6.08;72.94
83424;BME280;73355;49.044;8.686;2024-01-06T04:56:04;98619.88;;;6.09;72.65
83424;BME280;73355;49.044;8.686;2024-01-06T04:58:29;98624.47;;;6.12;73.09
83424;BME280;73355;49.044;8.686;2024-01-06T05:00:54;98624.84;;;6.14;73.00
83424;BME280;73355;49.044;8.686;2024-01-06T05:03:20;98622.50;;;6.16;73.26
83424;BME280;73355;49.044;8.686;2024-01-06T05:05:45;98619.47;;;6.11;72.97
83424;BME280;73355;49.044;8.686;2024-01-06T05:08:10;98624.88;;;6.11;72.40
83424;BME280;73355;49.044;8.686;2024-01-06T05:10:36;98619.47;;;6.11;73.04
83424;BME280;73355;49.044;8.686;2024-01-06T05:13:01;98623.38;;;6.06;72.95
83424;BME280;73355;49.044;8.686;2024-01-06T05:15:26;98617.63;;;6.01;73.01
83424;BME280;73355;49.044;8.686;2024-01-06T05:17:52;98619.94;;;6.02;73.13
83424;BME280;73355;49.044;8.686;2024-01-06T05:20:17;98624.94;;;6.04;72.78
83424;BME280;73355;49.044;8.686;2024-01-06T05:22:43;98621.84;;;6.05;73.33
83424;BME280;73355;49.044;8.686;2024-01-06T05:25:08;98624.53;;;6.05;72.76
83424;BME280;73355;49.044;8.686;2024-01-06T05:27:34;98620.66;;;6.06;73.18
83424;BME280;73355;49.044;8.686;2024-01-06T05:29:59;98608.72;;;6.04;73.02
83424;BME280;73355;49.044;8.686;2024-01-06T05:32:25;98614.88;;;6.04;73.31
83424;BME280;73355;49.044;8.686;2024-01-06T05:34:50;98613.72;;;6.05;73.24
83424;BME280;73355;49.044;8.686;2024-01-06T05:37:16;98618.75;;;6.07;73.10
83424;BME280;73355;49.044;8.686;2024-01-06T05:39:41;98618.69;;;6.10;72.68
83424;BME280;73355;49.044;8.686;2024-01-06T05:42:09;98622.53;;;6.13;72.75
83424;BME280;73355;49.044;8.686;2024-01-06T05:44:37;98623.31;;;6.13;72.99
83424;BME280;73355;49.044;8.686;2024-01-06T05:47:03;98627.13;;;6.16;72.57
83424;BME280;73355;49.044;8.686;2024-01-06T05:49:29;98622.94;;;6.15;72.68
83424;BME280;73355;49.044;8.686;2024-01-06T05:51:54;98622.16;;;6.14;72.44
83424;BME280;73355;49.044;8.686;2024-01-06T05:54:19;98627.94;;;6.13;72.77
83424;BME280;73355;49.044;8.686;2024-01-06T05:56:45;98632.19;;;6.14;73.14
83424;BME280;73355;49.044;8.686;2024-01-06T05:59:10;98627.50;;;6.18;73.10
83424;BME280;73355;49.044;8.686;2024-01-06T06:01:35;98628.25;;;6.22;72.66
83424;BME280;73355;49.044;8.686;2024-01-06T06:04:01;98641.31;;;6.27;72.47
83424;BME280;73355;49.044;8.686;2024-01-06T06:06:26;98647.50;;;6.28;72.39
83424;BME280;73355;49.044;8.686;2024-01-06T06:08:55;98653.72;;;6.25;72.12
83424;BME280;73355;49.044;8.686;2024-01-06T06:11:21;98654.50;;;6.21;72.28
83424;BME280;73355;49.044;8.686;2024-01-06T06:13:46;98656.47;;;6.17;72.42
83424;BME280;73355;49.044;8.686;2024-01-06T06:16:12;98659.53;;;6.19;72.34
83424;BME280;73355;49.044;8.686;2024-01-06T06:18:38;98668.00;;;6.21;72.63
83424;BME280;73355;49.044;8.686;2024-01-06T06:21:03;98675.66;;;6.27;72.43
83424;BME280;73355;49.044;8.686;2024-01-06T06:23:30;98667.56;;;6.30;72.64
83424;BME280;73355;49.044;8.686;2024-01-06T06:25:56;98675.28;;;6.32;72.03
83424;BME280;73355;49.044;8.686;2024-01-06T06:28:21;98681.03;;;6.34;71.98
83424;BME280;73355;49.044;8.686;2024-01-06T06:30:46;98679.09;;;6.34;72.44
83424;BME280;73355;49.044;8.686;2024-01-06T06:33:12;98679.84;;;6.35;72.14
83424;BME280;73355;49.044;8.686;2024-01-06T06:35:37;98682.16;;;6.36;71.90
83424;BME280;73355;49.044;8.686;2024-01-06T06:38:03;98685.63;;;6.37;71.98
83424;BME280;73355;49.044;8.686;2024-01-06T06:40:28;98698.38;;;6.36;71.95
83424;BME280;73355;49.044;8.686;2024-01-06T06:42:54;98705.34;;;6.37;71.54
83424;BME280;73355;49.044;8.686;2024-01-06T06:45:19;98701.44;;;6.38;71.83
83424;BME280;73355;49.044;8.686;2024-01-06T06:47:47;98699.50;;;6.39;71.76
83424;BME280;73355;49.044;8.686;2024-01-06T06:50:13;98706.06;;;6.41;71.76
83424;BME280;73355;49.044;8.686;2024-01-06T06:52:38;98707.19;;;6.44;71.01
83424;BME280;73355;49.044;8.686;2024-01-06T06:55:03;98701.75;;;6.47;71.35
83424;BME280;73355;49.044;8.686;2024-01-06T06:57:29;98714.13;;;6.48;71.44
83424;BME280;73355;49.044;8.686;2024-01-06T06:59:54;98712.19;;;6.49;71.31
83424;BME280;73355;49.044;8.686;2024-01-06T07:02:19;98712.19;;;6.49;71.16
83424;BME280;73355;49.044;8.686;2024-01-06T07:04:45;98713.28;;;6.51;70.89
83424;BME280;73355;49.044;8.686;2024-01-06T07:07:10;98723.31;;;6.54;70.99
83424;BME280;73355;49.044;8.686;2024-01-06T07:09:35;98730.25;;;6.55;70.76
83424;BME280;73355;49.044;8.686;2024-01-06T07:12:01;98736.41;;;6.56;70.66
83424;BME280;73355;49.044;8.686;2024-01-06T07:14:27;98739.91;;;6.56;70.88
83424;BME280;73355;49.044;8.686;2024-01-06T07:16:52;98741.06;;;6.55;70.49
83424;BME280;73355;49.044;8.686;2024-01-06T07:19:17;98746.06;;;6.57;71.01
83424;BME280;73355;49.044;8.686;2024-01-06T07:21:43;98751.81;;;6.62;70.08
83424;BME280;73355;49.044;8.686;2024-01-06T07:24:08;98757.25;;;6.59;70.66
83424;BME280;73355;49.044;8.686;2024-01-06T07:26:34;98757.28;;;6.55;70.25
83424;BME280;73355;49.044;8.686;2024-01-06T07:28:59;98758.81;;;6.56;70.25
83424;BME280;73355;49.044;8.686;2024-01-06T07:31:25;98753.06;;;6.54;70.54
83424;BME280;73355;49.044;8.686;2024-01-06T07:33:50;98748.78;;;6.57;70.36
83424;BME280;73355;49.044;8.686;2024-01-06T07:36:15;98759.25;;;6.55;70.53
83424;BME280;73355;49.044;8.686;2024-01-06T07:38:42;98755.81;;;6.47;70.91
83424;BME280;73355;49.044;8.686;2024-01-06T07:41:10;98760.84;;;6.45;71.28
83424;BME280;73355;49.044;8.686;2024-01-06T07:43:35;98764.38;;;6.42;71.51
83424;BME280;73355;49.044;8.686;2024-01-06T07:46:00;98763.25;;;6.36;72.04
83424;BME280;73355;49.044;8.686;2024-01-06T07:48:25;98765.59;;;6.31;72.13
83424;BME280;73355;49.044;8.686;2024-01-06T07:50:51;98763.69;;;6.28;72.51
83424;BME280;73355;49.044;8.686;2024-01-06T07:53:16;98768.31;;;6.27;73.05
83424;BME280;73355;49.044;8.686;2024-01-06T07:55:42;98765.59;;;6.31;72.60
83424;BME280;73355;49.044;8.686;2024-01-06T07:58:07;98774.06;;;6.33;73.01
83424;BME280;73355;49.044;8.686;2024-01-06T08:00:33;98775.22;;;6.35;73.47
83424;BME280;73355;49.044;8.686;2024-01-06T08:02:58;98774.84;;;6.37;72.94
83424;BME280;73355;49.044;8.686;2024-01-06T08:05:23;98782.94;;;6.33;73.36
83424;BME280;73355;49.044;8.686;2024-01-06T08:07:51;98784.50;;;6.34;73.59
83424;BME280;73355;49.044;8.686;2024-01-06T08:10:16;98788.72;;;6.35;73.62
83424;BME280;73355;49.044;8.686;2024-01-06T08:12:42;98789.16;;;6.30;73.99
83424;BME280;73355;49.044;8.686;2024-01-06T08:15:07;98787.22;;;6.27;74.09
83424;BME280;73355;49.044;8.686;2024-01-06T08:17:34;98789.53;;;6.29;74.52
83424;BME280;73355;49.044;8.686;2024-01-06T08:20:00;98787.19;;;6.34;74.02
83424;BME280;73355;49.044;8.686;2024-01-06T08:22:25;98793.31;;;6.38;74.33
83424;BME280;73355;49.044;8.686;2024-01-06T08:24:50;98797.56;;;6.43;74.08
83424;BME280;73355;49.044;8.686;2024-01-06T08:27:16;98789.81;;;6.45;74.42
83424;BME280;73355;49.044;8.686;2024-01-06T08:29:41;98796.00;;;6.45;74.37
83424;BME280;73355;49.044;8.686;2024-01-06T08:32:07;98795.56;;;6.50;74.09
83424;BME280;73355;49.044;8.686;2024-01-06T08:34:32;98793.19;;;6.56;73.66
83424;BME280;73355;49.044;8.686;2024-01-06T08:36:57;98803.25;;;6.55;73.84
83424;BME280;73355;49.044;8.686;2024-01-06T08:39:22;98805.94;;;6.59;74.11
83424;BME280;73355;49.044;8.686;2024-01-06T08:41:49;98804.78;;;6.60;73.96
83424;BME280;73355;49.044;8.686;2024-01-06T08:44:14;98812.94;;;6.53;73.81
83424;BME280;73355;49.044;8.686;2024-01-06T08:46:40;98819.88;;;6.50;73.84
83424;BME280;73355;49.044;8.686;2024-01-06T08:49:05;98811.78;;;6.54;74.06
83424;BME280;73355;49.044;8.686;2024-01-06T08:51:30;98810.59;;;6.55;74.18
83424;BME280;73355;49.044;8.686;2024-01-06T08:53:56;98817.13;;;6.57;74.13
83424;BME280;73355;49.044;8.686;2024-01-06T08:56:21;98822.94;;;6.59;74.21
83424;BME280;73355;49.044;8.686;2024-01-06T08:58:47;98819.84;;;6.57;73.99
83424;BME280;73355;49.044;8.686;2024-01-06T09:01:12;98827.56;;;6.55;73.88
83424;BME280;73355;49.044;8.686;2024-01-06T09:03:38;98822.94;;;6.56;74.29
83424;BME280;73355;49.044;8.686;2024-01-06T09:06:04;98820.63;;;6.58;73.92
83424;BME280;73355;49.044;8.686;2024-01-06T09:08:30;98809.41;;;6.56;74.08
83424;BME280;73355;49.044;8.686;2024-01-06T09:10:55;98815.59;;;6.60;74.13
83424;BME280;73355;49.044;8.686;2024-01-06T09:13:22;98824.81;;;6.66;73.92
83424;BME280;73355;49.044;8.686;2024-01-06T09:15:48;98831.00;;;6.63;74.42
83424;BME280;73355;49.044;8.686;2024-01-06T09:18:14;98822.94;;;6.59;74.37
83424;BME280;73355;49.044;8.686;2024-01-06T09:20:39;98827.16;;;6.60;74.16
83424;BME280;73355;49.044;8.686;2024-01-06T09:23:04;98833.31;;;6.61;74.63
83424;BME280;73355;49.044;8.686;2024-01-06T09:25:30;98834.09;;;6.65;74.19
83424;BME280;73355;49.044;8.686;2024-01-06T09:27:55;98829.81;;;6.68;74.29
83424;BME280;73355;49.044;8.686;2024-01-06T09:30:21;98839.84;;;6.71;74.57
83424;BME280;73355;49.044;8.686;2024-01-06T09:32:46;98842.50;;;6.74;74.12
83424;BME280;73355;49.044;8.686;2024-01-06T09:35:12;98842.06;;;6.79;74.02
83424;BME280;73355;49.044;8.686;2024-01-06T09:37:37;98848.63;;;6.78;74.31
83424;BME280;73355;49.044;8.686;2024-01-06T09:40:03;98851.00;;;6.73;74.04
83424;BME280;73355;49.044;8.686;2024-01-06T09:42:28;98846.78;;;6.72;74.66
83424;BME280;73355;49.044;8.686;2024-01-06T09:44:54;98853.31;;;6.74;74.30
83424;BME280;73355;49.044;8.686;2024-01-06T09:47:22;98846.31;;;6.80;74.32
83424;BME280;73355;49.044;8.686;2024-01-06T09:49:50;98856.00;;;6.78;74.40
83424;BME280;73355;49.044;8.686;2024-01-06T09:52:21;98856.75;;;6.78;74.39
83424;BME280;73355;49.044;8.686;2024-01-06T09:54:51;98863.75;;;6.76;74.49
83424;BME280;73355;49.044;8.686;2024-01-06T09:57:17;98854.09;;;6.75;74.43
83424;BME280;73355;49.044;8.686;2024-01-06T09:59:44;98860.31;;;6.72;74.31
83424;BME280;73355;49.044;8.686;2024-01-06T10:02:14;98868.06;;;6.66;74.62
83424;BME280;73355;49.044;8.686;2024-01-06T10:04:40;98873.09;;;6.64;74.80
83424;BME280;73355;49.044;8.686;2024-01-06T10:07:05;98867.66;;;6.71;74.67
83424;BME280;73355;49.044;8.686;2024-01-06T10:09:30;98866.41;;;6.79;74.81
83424;BME280;73355;49.044;8.686;2024-01-06T10:11:56;98869.09;;;6.83;74.64
83424;BME280;73355;49.044;8.686;2024-01-06T10:14:23;98865.97;;;6.84;74.78
83424;BME280;73355;49.044;8.686;2024-01-06T10:16:50;98869.06;;;6.86;74.76
83424;BME280;73355;49.044;8.686;2024-01-06T10:19:15;98864.84;;;6.82;74.38
83424;BME280;73355;49.044;8.686;2024-01-06T10:21:41;98864.53;;;6.73;74.86
83424;BME280;73355;49.044;8.686;2024-01-06T10:24:09;98864.53;;;6.73;75.00
83424;BME280;73355;49.044;8.686;2024-01-06T10:26:35;98867.25;;;6.69;75.06
83424;BME280;73355;49.044;8.686;2024-01-06T10:29:00;98873.81;;;6.72;75.14
83424;BME280;73355;49.044;8.686;2024-01-06T10:31:26;98865.72;;;6.72;75.03
83424;BME280;73355;49.044;8.686;2024-01-06T10:33:51;98869.53;;;6.78;75.46
83424;BME280;73355;49.044;8.686;2024-01-06T10:36:17;98872.25;;;6.78;75.17
83424;BME280;73355;49.044;8.686;2024-01-06T10:38:44;98875.69;;;6.82;74.97
83424;BME280;73355;49.044;8.686;2024-01-06T10:41:11;98867.16;;;6.83;75.19
83424;BME280;73355;49.044;8.686;2024-01-06T10:43:38;98868.25;;;6.89;75.06
83424;BME280;73355;49.044;8.686;2024-01-06T10:46:07;98857.41;;;6.93;75.06
83424;BME280;73355;49.044;8.686;2024-01-06T10:48:37;98859.72;;;6.94;74.52
83424;BME280;73355;49.044;8.686;2024-01-06T10:51:11;98865.50;;;6.96;74.47
83424;BME280;73355;49.044;8.686;2024-01-06T10:53:37;98867.41;;;6.99;74.34
83424;BME280;73355;49.044;8.686;2024-01-06T10:56:06;98861.25;;;6.95;74.46
83424;BME280;73355;49.044;8.686;2024-01-06T10:58:45;98867.06;;;6.94;74.69
83424;BME280;73355;49.044;8.686;2024-01-06T11:01:12;98868.63;;;6.91;74.53
83424;BME280;73355;49.044;8.686;2024-01-06T11:03:38;98867.06;;;6.94;74.50
83424;BME280;73355;49.044;8.686;2024-01-06T11:06:08;98866.31;;;6.93;74.30
83424;BME280;73355;49.044;8.686;2024-01-06T11:08:51;98869.34;;;6.99;74.05
83424;BME280;73355;49.044;8.686;2024-01-06T11:11:18;98856.56;;;7.03;74.37
83424;BME280;73355;49.044;8.686;2024-01-06T11:13:45;98862.31;;;7.09;74.52
83424;BME280;73355;49.044;8.686;2024-01-06T11:16:12;98864.63;;;7.06;73.93
83424;BME280;73355;49.044;8.686;2024-01-06T11:18:57;98858.88;;;7.04;73.98
83424;BME280;73355;49.044;8.686;2024-01-06T11:21:22;98855.00;;;7.05;74.26
83424;BME280;73355;49.044;8.686;2024-01-06T11:24:15;98857.66;;;7.09;73.86
83424;BME280;73355;49.044;8.686;2024-01-06T11:26:47;98860.81;;;7.04;73.76
83424;BME280;73355;49.044;8.686;2024-01-06T11:29:14;98854.22;;;7.05;73.98
83424;BME280;73355;49.044;8.686;2024-01-06T11:31:40;98859.56;;;7.12;74.22
83424;BME280;73355;49.044;8.686;2024-01-06T11:34:16;98856.78;;;7.19;73.83
83424;BME280;73355;49.044;8.686;2024-01-06T11:36:45;98856.84;;;7.16;73.25
83424;BME280;73355;49.044;8.686;2024-01-06T11:39:42;98854.50;;;7.14;73.89
83424;BME280;73355;49.044;8.686;2024-01-06T11:42:09;98854.94;;;7.09;73.55
83424;BME280;73355;49.044;8.686;2024-01-06T11:44:43;98856.13;;;7.08;73.85
83424;BME280;73355;49.044;8.686;2024-01-06T11:47:11;98852.63;;;7.11;73.64
83424;BME280;73355;49.044;8.686;2024-01-06T11:49:38;98850.69;;;7.12;73.63
83424;BME280;73355;49.044;8.686;2024-01-06T11:52:03;98854.56;;;7.11;73.55
83424;BME280;73355;49.044;8.686;2024-01-06T11:54:30;98848.34;;;7.14;73.83
83424;BME280;73355;49.044;8.686;2024-01-06T11:56:56;98855.66;;;7.17;73.58
83424;BME280;73355;49.044;8.686;2024-01-06T11:59:22;98850.22;;;7.20;73.59
83424;BME280;73355;49.044;8.686;2024-01-06T12:01:48;98847.91;;;7.19;73.56
83424;BME280;73355;49.044;8.686;2024-01-06T12:04:14;98852.97;;;7.17;73.90
83424;BME280;73355;49.044;8.686;2024-01-06T12:06:40;98849.41;;;7.23;73.90
83424;BME280;73355;49.044;8.686;2024-01-06T12:09:06;98846.28;;;7.28;73.94
83424;BME280;73355;49.044;8.686;2024-01-06T12:11:32;98849.38;;;7.27;73.51
83424;BME280;73355;49.044;8.686;2024-01-06T12:13:57;98842.47;;;7.22;73.55
83424;BME280;73355;49.044;8.686;2024-01-06T12:16:23;98849.78;;;7.25;73.13
83424;BME280;73355;49.044;8.686;2024-01-06T12:18:53;98844.78;;;7.20;73.29
83424;BME280;73355;49.044;8.686;2024-01-06T12:21:22;98842.84;;;7.21;72.92
83424;BME280;73355;49.044;8.686;2024-01-06T12:23:47;98839.00;;;7.18;73.41
83424;BME280;73355;49.044;8.686;2024-01-06T12:26:22;98840.16;;;7.21;73.23
83424;BME280;73355;49.044;8.686;2024-01-06T12:28:54;98830.50;;;7.20;73.17
83424;BME280;73355;49.044;8.686;2024-01-06T12:31:19;98832.03;;;7.21;73.72
83424;BME280;73355;49.044;8.686;2024-01-06T12:33:45;98839.75;;;7.22;73.72
83424;BME280;73355;49.044;8.686;2024-01-06T12:36:11;98833.97;;;7.20;73.51
83424;BME280;73355;49.044;8.686;2024-01-06T12:38:37;98835.91;;;7.20;73.65
83424;BME280;73355;49.044;8.686;2024-01-06T12:41:04;98835.91;;;7.20;73.61
83424;BME280;73355;49.044;8.686;2024-01-06T12:43:30;98843.63;;;7.21;73.73
83424;BME280;73355;49.044;8.686;2024-01-06T12:45:55;98835.50;;;7.21;73.70
83424;BME280;73355;49.044;8.686;2024-01-06T12:48:23;98840.16;;;7.21;73.72
83424;BME280;73355;49.044;8.686;2024-01-06T12:50:48;98837.41;;;7.24;73.96
83424;BME280;73355;49.044;8.686;2024-01-06T12:53:13;98838.53;;;7.27;73.75
83424;BME280;73355;49.044;8.686;2024-01-06T12:55:40;98844.34;;;7.29;73.98
83424;BME280;73355;49.044;8.686;2024-01-06T12:58:06;98844.28;;;7.32;74.03
83424;BME280;73355;49.044;8.686;2024-01-06T13:00:33;98838.03;;;7.39;73.63
83424;BME280;73355;49.044;8.686;2024-01-06T13:02:58;98838.44;;;7.37;73.45
83424;BME280;73355;49.044;8.686;2024-01-06T13:05:24;98837.66;;;7.37;73.05